Extreme weather reports worldwide

Rain

Station
 
Location
 
Name
 
Wind
Knots
Gust
Knots
Vis
SM
Temp/Dew
C
Baro
inHg
METAR
 
AIA KAIA Alliance, US Alliance Municipal Airport 21 54 10 26/2 29.79 KAIA 272133Z AUTO 16021G54KT 10SM -RA SQ FEW055 BKN095 BKN120 27/02 A2979 RMK AO2 PK WND 25059/2111 WSHFT 2048 LTG DSNT E-SW RAB15 PRESFR P0000 T02670022
ISB OPIS Islamabad, PK Islamabad International Airport 18 42 1.12 22/17 29.59 OPIS 272130Z 31018G42KT 1800 TSRA FEW030CB SCT040 OVC100 22/17 Q1002 TEMPO 27020G50KT 1000 TSRA FEW030CB
BFF KBFF Scottsbluff, US Western Neb. Rgnl/William B. Heilig Airport 14 42 9 27/3 29.82 KBFF 272135Z AUTO 26014G42KT 200V350 9SM -TSRA FEW070 BKN090 BKN110 28/04 A2982 RMK AO2 PK WND 27042/2133 LTG DSNT E-SW RAB24 TSB29 P0000 T02780039
WPR SCFM Porvenir, CL Capitan Fuentes Martinez Airport Airport 30 40 6.21 5/0 29.76 SCFM 272100Z 20030G40KT 9999 SHRA BKN040 05/00 Q1008
LYH KLYH Lynchburg, US Lynchburg Regional Preston Glenn Field 19 39 0.25 19/16 29.82 KLYH 272149Z 33019G39KT 250V040 1/4SM R04/0800VP6000FT +TSRA FEW006 BKN080 OVC110 19/16 A2982 RMK AO2 PK WND 23039/2146 LTG DSNT N AND SE AND NW RAB46 TSB31 PRESRR P0000

Station
 
Location
 
Name
 
Wind
Knots
Gust
Knots
Vis
SM
Temp/Dew
C
Baro
inHg
METAR
 
KMWN 24 37 0.06 11/11 KMWN 272055Z 22024G37KT 1/16SM -SHRA FG VV000 11/11 RMK
KNJM Swansboro, US Bogue Field Mcalf Airport 17 27 8 25/20 29.93 KNJM 272057Z AUTO 22017G27KT 8SM -RA FEW070 FEW100 SCT120 25/21 A2993 RMK AO2 PK WND 22029/2045 RAB50 SLP140 P0000 60000 T02500206 55007
RTN KRTN Raton, US Raton Municipal-Crews Field 20 26 10 31/-8 30.05 KRTN 272053Z AUTO 25020G26KT 10SM -RA CLR 32/M08 A3005 RMK AO2 PK WND 21029/2026 RAB28 SLP081 P0000 60000 T03171083 58030
JFK KJFK New York, US John F Kennedy International Airport 18 26 9 18/17 29.87 KJFK 272140Z 21018G26KT 9SM -RA SCT004 SCT036 OVC055 19/18 A2987 RMK AO2 PK WND 19028/2128 LTG DSNT N AND NW RAB19 P0000 T01890178 $
ENUG 15 26 5/4 29.62 ENUG 272120Z AUTO 06015G26KT 2400NDV -SHRA BR OVC003/// 05/04 Q1003 W///S4
YYY CYYY Mont-Joli, CA Mont Joli Airport 19 25 1.5 7/7 29.79 CYYY 272100Z 06019G25KT 1 1/2SM -RA BR OVC002 07/07 A2979 RMK SF8 SLP092
YZH CYZH Slave Lake, CA Slave Lake Airport 17 25 9 18/7 29.53 CYZH 272142Z AUTO 17017G25KT 100V190 9SM -RA BKN076 BKN095 OVC210 18/07 A2953 RMK PRESRR SLP005 DENSITY ALT 3200FT
CNK KCNK Concordia, US Blosser Municipal Airport 15 25 10 28/13 29.88 KCNK 272055Z AUTO 18015G25KT 10SM -RA CLR 29/13 A2988 RMK AO2 SLP107 P0000 60000 T02890133 56024
MOT KMOT Minot, US Minot International Airport 16 24 10 23/5 29.73 KMOT 272054Z 17016G24KT 10SM -RA FEW080 BKN090 OVC110 23/06 A2973 RMK AO2 PK WND 18027/2003 RAB53 SLP066 P0000 60000 T02330056 55007
LWV KLWV Lawrenceville, US Lawrenceville Vincennes International Airport 15 24 3 17/16 29.83 KLWV 272117Z AUTO 27015G24KT 3SM RA BR SCT008 BKN014 OVC022 18/17 A2983 RMK AO2 P0002 T01780167
EWR KEWR Newark, US Newark Liberty International Airport 6 23 4 21/18 29.83 KEWR 272119Z 22006G23KT 4SM R04R/6000VP6000FT TSRA FEW012 BKN035CB OVC070 21/18 A2983 RMK AO2 PK WND 21027/2105 WSHFT 2102 LTG DSNT N FRQ LTGICCG OHD TS OHD MOV NE P0036 T02110183
SHN KSHN Shelton, US Sanderson Field 15 22 8 13/10 29.97 KSHN 272053Z AUTO 26015G22KT 8SM -RA FEW018 BKN050 OVC060 13/10 A2997 RMK AO2 RAB30 SLP152 P0000 60002 T01330100 51006
YLL CYLL Lloydminster, CA Lloydminster Airport 14 22 15 16/6 29.66 CYLL 272100Z 15014G22KT 15SM -RA OVC070 16/06 A2966 RMK AC8 SLP055 DENSITY ALT 3200FT
KXWA 12 22 10 20/9 29.68 KXWA 272051Z AUTO 17012G22KT 10SM -RA OVC095 20/09 A2968 RMK AO2 PK WND 15027/2003 RAB16 SLP052 P0000 60000 T02000094 56013
YXU CYXU London, CA London Airport 5 22 1.25 17/16 29.71 CYXU 272140Z 26005G22KT 160V280 1 1/4SM +TSRA BR BKN015CB OVC050 17/16 A2971 RMK RA3CB4SC1 OCNL LTGIC SLP061 DENSITY ALT 1600FT
BKL KBKL Cleveland, US Burke Lakefront Airport 15 21 7 17/14 29.75 KBKL 272143Z 26015G21KT 7SM -RA FEW016 BKN037 OVC095 17/14 A2975 RMK AO2 RAE2058B38 P0001 T01720144
YQV CYQV Yorkton, CA Yorkton Municipal Airport 14 21 9 19/11 29.70 CYQV 272141Z AUTO 08014G21KT 9SM -RA FEW060 BKN077 OVC091 19/11 A2970 RMK SLP063 DENSITY ALT 2700FT
YGH CYGH Fort Good Hope, CA Fort Good Hope Airport 13 21 15 3/2 29.87 CYGH 272138Z CCA 31013G21KT 15SM -RA BKN011 OVC018 03/02 A2987 RMK SC5SC3 CIG RAG SLP122
HNB KHNB Huntingburg, US Huntingburg Airport 16 20 10 18/15 29.83 KHNB 272056Z AUTO 27016G20KT 10SM -RA 18/16 A2983 RMK AO2 RAE11B55 SLP101 P0000 60000 T01830156 53001
YGR CYGR Îles-de-la-Madeleine, CA Îles-de-la-Madeleine Airport 15 20 6 7/7 29.89 CYGR 272100Z 11015G20KT 6SM -RA BR SCT003 OVC010 07/07 A2989 RMK SF4SC6 SLP124
YBC CYBC Baie-Comeau, CA Baie Comeau Airport 15 20 9 7/6 29.84 CYBC 272100Z AUTO 06015G20KT 9SM -RA OVC013 07/06 A2984 RMK SLP107
OAJ KOAJ Jacksonville, US Albert J Ellis Airport 13 20 10 22/20 29.86 KOAJ 272056Z 16013G20KT 10SM -RA FEW029 SCT046 BKN055 22/20 A2986 RMK AO2 PRESFR SLP113 P0001 60001 T02220200 58026
KTEW Mason, US Mason Jewett Field 10 20 10 19/16 29.72 KTEW 272138Z AUTO 01010G20KT 330V030 10SM -RA BKN012 BKN020 OVC027 19/17 A2972 RMK AO2 T01910166
LEX KLEX Lexington, US Blue Grass Airport 6 20 4 16/12 29.81 KLEX 272101Z 33006G20KT 4SM -RA FEW034 SCT048 BKN060 16/13 A2981 RMK AO2 WSHFT 2041 P0003 T01610128
YPL CYPL Pickle Lake, CA Pickle Lake Airport 11 19 9 12/9 29.80 CYPL 272139Z AUTO 27011G19KT 9SM RA OVC060 12/09 A2980 RMK LTNG DIST SW PCPN 1.8MM PAST HR SLP104 DENSITY ALT 1300FT
KMLP 6 19 4 5/3 29.93 KMLP 272141Z AUTO VRB06G19KT 4SM -RA BR FEW008 BKN013 OVC041 06/04 A2993 RMK AO2 RAB12 P0002 T00560039
YZX CYZX Greenwood, CA CFB Greenwood 13 18 3 17/16 29.87 CYZX 272100Z 24013G18KT 3SM -SHRA BR SCT006 OVC014 17/16 A2987 RMK SF4SC4 SLP115
LWS KLWS Lewiston, US Lewiston Nez Perce County Airport 13 18 6 16/11 29.89 KLWS 272141Z 31013G18KT 6SM -TSRA BKN055 OVC070 16/12 A2989 RMK AO2 LTG DSNT E AND SW TSB41 P0005 T01610117
YUY CYUY Rouyn-Noranda, CA Rouyn Noranda Airport 12 18 10 14/11 29.70 CYUY 272126Z 01012G18KT 290V020 10SM -SHRA BKN016 OVC035 14/11 A2970 RMK CU5SC3 VIS LWR E SLP063 DENSITY ALT 1400FT
KJFZ Richlands, US Tazewell County Airport 11 18 4 / 29.87 KJFZ 272135Z AUTO 25011G18KT 4SM -RA SCT022 BKN030 OVC085 A2987 RMK AO2 P0005
ZPH KZPH Zephyrhills, US Zephyrhills Municipal Airport 11 17 5 25/22 29.98 KZPH 272135Z AUTO 23011G17KT 5SM RA SCT029 BKN047 OVC055 25/22 A2998 RMK A02 LTG DSNT N T02540225
SUA KSUA Stuart, US Witham Field 10 17 5 28/22 29.98 KSUA 272045Z 18010G17KT 5SM -TSRA SCT016 BKN049 28/22 A2998 RMK TSB2045
KDCY Washington, US Daviess County Airport 12 16 4 17/17 29.82 KDCY 272135Z AUTO 26012G16KT 4SM RA BKN008 OVC021 18/18 A2982 RMK AO2 T01760175
YOD CYOD Cold Lake, CA CFB Cold Lake 11 16 15 17/7 29.67 CYOD 272100Z 22011G16KT 15SM -SHRA BKN060 OVC140CB 17/07 A2967 RMK SC5CB3 DENSITY ALT 2911FT OCNL LTGCC 20NM NE SLP055
YKY CYKY Kindersley, CA Kindersley Airport 11 16 15 15/10 29.70 CYKY 272100Z 18011G16KT 15SM -RA OVC065 15/10 A2970 RMK SC8 SLP065 DENSITY ALT 3100FT
YEN CYEN Estevan, CA Estevan Airport 10 16 9 19/10 29.68 CYEN 272122Z AUTO 16010G16KT 9SM -RA OVC091 19/10 A2968 RMK WSHFT AT 2109Z PRESRR SLP054 DENSITY ALT 3100FT
KRSV Robinson, US Robinson Municipal Airport 10 16 3 17/16 29.84 KRSV 272135Z AUTO 34010G16KT 3SM +RA SCT008 BKN012 OVC019 17/16 A2984 RMK AO2 P0007 T01730164
VTB UMII Vitebsk, BY Vitebsk Vostochny Airport 10 16 4.35 9/8 29.50 UMII 272136Z 27005G08MPS 7000 -SHRA FEW010 BKN023CB 09/08 Q0999 TEMPO 2000 SHRA BKN005
K6B9 8 16 0.75 19/19 29.67 K6B9 272135Z AUTO 27008G16KT 3/4SM +RA OVC004 19/19 A2967 RMK AO2
KCVC 8 16 10 27/15 29.85 KCVC 272135Z AUTO 26008G16KT 240V300 10SM +RA SCT060 27/15 A2985 RMK AO2
LEE KLEE Leesburg, US Leesburg International Airport 10 15 4 23/21 29.95 KLEE 272145Z 27010G15KT 4SM -TSRA BR FEW013 BKN065 OVC120 24/22 A2995 RMK AO2 LTG DSNT W-NE RAE24B31 TSB26 P0019 T02390217
ZBF CZBF Bathurst, CA Bathurst Airport 9 15 6 9/8 29.85 CZBF 272145Z AUTO 04009G15KT 6SM -RA BR OVC002 09/08 A2985 RMK PRESFR SLP112
MDN KIMS Madison, US Madison Municipal Airport 5 15 5 17/16 29.83 KIMS 272135Z AUTO 29005G15KT 5SM +RA SCT025 BKN042 OVC090 17/16 A2983 RMK AO2 P0002
KHNZ Oxford, US Henderson Oxford Airport 10 14 10 20/20 29.82 KHNZ 272135Z AUTO 18010G14KT 10SM -RA SCT002 BKN007 OVC015 20/20 A2982 RMK AO2 T02020201
KTYQ Indianapolis, US Indianapolis Executive Airport 9 14 10 17/15 29.78 KTYQ 272135Z AUTO 29009G14KT 10SM -RA 17/16 A2978 RMK AO2 T01700158